createdAt,value
2019-03-15T00:00:03.056Z,95.6
2019-03-15T00:01:03.088Z,95.6
2019-03-15T00:02:03.547Z,94.7
2019-03-15T00:03:03.871Z,94.5
2019-03-15T00:04:03.798Z,94.5
2019-03-15T00:05:03.818Z,93.8
2019-03-15T00:06:03.712Z,94.2
2019-03-15T00:07:04.044Z,94.2
2019-03-15T00:08:03.649Z,94
2019-03-15T00:09:03.381Z,93.5
2019-03-15T00:10:03.639Z,91.9
2019-03-15T00:11:04.605Z,91.4
2019-03-15T00:12:02.968Z,91
2019-03-15T00:13:03.329Z,92.4
2019-03-15T00:14:03.782Z,90.3
2019-03-15T00:15:03.451Z,92.1
2019-03-15T00:16:03.697Z,92.4
2019-03-15T00:17:03.579Z,93.1
2019-03-15T00:18:03.802Z,91.2
2019-03-15T00:19:03.672Z,89.6
2019-03-15T00:20:03.586Z,89.3
2019-03-15T00:21:03.598Z,89.1
2019-03-15T00:22:03.534Z,89.6
2019-03-15T00:23:03.586Z,89.1
2019-03-15T00:24:03.469Z,89.3
2019-03-15T00:25:03.487Z,88.6
2019-03-15T00:26:03.172Z,89.6
2019-03-15T00:27:03.485Z,88.9
2019-03-15T00:28:03.281Z,89.1
2019-03-15T00:29:03.081Z,87.5
2019-03-15T00:30:03.122Z,87.2
2019-03-15T00:31:03.276Z,87
2019-03-15T00:32:02.860Z,88.2
2019-03-15T00:33:03.009Z,88.6
2019-03-15T00:34:02.946Z,88.9
2019-03-15T00:35:03.189Z,88.6
2019-03-15T00:36:02.928Z,87.5
2019-03-15T00:37:03.688Z,89.3
2019-03-15T00:38:03.131Z,90.3
2019-03-15T00:39:03.253Z,92.4
2019-03-15T00:40:03.019Z,93.3
2019-03-15T00:41:02.993Z,93.8
2019-03-15T00:42:02.905Z,94
2019-03-15T00:43:03.097Z,94.7
2019-03-15T00:44:03.114Z,96.1
2019-03-15T00:45:03.112Z,95.6
2019-03-15T00:46:02.607Z,95.6
2019-03-15T00:47:03.115Z,94.9
2019-03-15T00:48:03.071Z,92.6
2019-03-15T00:49:03.502Z,91.2
2019-03-15T00:50:02.778Z,91.4
2019-03-15T00:51:03.721Z,91.7
2019-03-15T00:52:03.614Z,91.7
2019-03-15T00:53:03.753Z,91.2
2019-03-15T00:54:03.616Z,90.3
2019-03-15T00:55:03.754Z,90.5
2019-03-15T00:56:02.849Z,92.4
2019-03-15T00:57:03.505Z,93.3
2019-03-15T00:58:03.482Z,92.1
2019-03-15T00:59:03.856Z,93.1
2019-03-15T01:00:03.904Z,92.1
2019-03-15T01:01:03.677Z,92.4
2019-03-15T01:02:03.307Z,92.6
2019-03-15T01:03:03.374Z,94.9
2019-03-15T01:04:03.506Z,93.5
2019-03-15T01:05:03.868Z,93.8
2019-03-15T01:06:03.092Z,93.3
2019-03-15T01:07:03.290Z,94.2
2019-03-15T01:08:03.588Z,93.5
2019-03-15T01:09:03.325Z,94.7
2019-03-15T01:10:03.466Z,95.4
2019-03-15T01:11:03.594Z,95.2
2019-03-15T01:12:03.642Z,94.7
2019-03-15T01:13:03.527Z,93.5
2019-03-15T01:14:03.182Z,94
2019-03-15T01:15:03.106Z,93.5
2019-03-15T01:16:03.473Z,92.4
2019-03-15T01:17:03.068Z,92.4
2019-03-15T01:18:03.231Z,94
2019-03-15T01:19:03.109Z,94.7
2019-03-15T01:20:03.193Z,94.7
2019-03-15T01:21:02.967Z,95.4
2019-03-15T01:22:03.225Z,95.4
2019-03-15T01:23:03.119Z,94.9
2019-03-15T01:24:03.116Z,95.2
2019-03-15T01:25:03.051Z,94.9
2019-03-15T01:26:02.895Z,94.2
2019-03-15T01:27:03.118Z,95.4
2019-03-15T01:28:02.990Z,95.9
2019-03-15T01:29:02.969Z,96.8
2019-03-15T01:30:02.906Z,97.3
2019-03-15T01:31:02.987Z,97.5
2019-03-15T01:32:02.921Z,95.9
2019-03-15T01:33:03.485Z,96.6
2019-03-15T01:34:03.834Z,95.4
2019-03-15T01:35:04.007Z,95.6
2019-03-15T01:36:03.813Z,95.4
2019-03-15T01:37:03.561Z,92.8
2019-03-15T01:38:03.667Z,91.9
2019-03-15T01:39:03.661Z,91
2019-03-15T01:40:03.501Z,91.4
2019-03-15T01:41:04.586Z,91.7
2019-03-15T01:42:03.307Z,92.1
2019-03-15T01:43:03.831Z,91.7
2019-03-15T01:44:03.880Z,91.4
2019-03-15T01:45:03.158Z,92.4
2019-03-15T01:46:03.532Z,92.6
2019-03-15T01:47:03.520Z,93.1
2019-03-15T01:48:03.326Z,93.3
2019-03-15T01:49:03.289Z,94
2019-03-15T01:50:03.320Z,94.5
2019-03-15T01:51:03.348Z,94
2019-03-15T01:52:01.807Z,93.3
2019-03-15T01:53:03.223Z,94
2019-03-15T01:54:03.088Z,95.2
2019-03-15T01:55:03.155Z,96.1
2019-03-15T01:56:03.194Z,94.7
2019-03-15T01:57:03.163Z,94.9
2019-03-15T01:58:03.256Z,95.4
2019-03-15T01:59:02.869Z,95.4
2019-03-15T02:00:02.739Z,96.6
2019-03-15T02:01:04.904Z,95.9
2019-03-15T02:02:02.973Z,96.1
2019-03-15T02:03:03.553Z,95.2
2019-03-15T02:04:02.881Z,95.9
2019-03-15T02:05:03.808Z,94.2
2019-03-15T02:06:02.861Z,94.5
2019-03-15T02:07:03.891Z,92.8
2019-03-15T02:08:03.855Z,92.8
2019-03-15T02:09:03.499Z,91.7
2019-03-15T02:10:03.726Z,90.7
2019-03-15T02:11:04.046Z,91.7
2019-03-15T02:12:03.530Z,92.8
2019-03-15T02:13:03.622Z,92.4
2019-03-15T02:14:03.652Z,91.2
2019-03-15T02:15:03.781Z,91.2
2019-03-15T02:16:03.332Z,92.1
2019-03-15T02:17:03.617Z,91.9
2019-03-15T02:18:03.616Z,91.2
2019-03-15T02:19:03.662Z,91.2
2019-03-15T02:20:03.449Z,91
2019-03-15T02:21:03.445Z,90.5
2019-03-15T02:22:03.534Z,90.7
2019-03-15T02:23:03.204Z,91.7
2019-03-15T02:24:03.598Z,90.5
2019-03-15T02:25:03.602Z,91.4
2019-03-15T02:26:03.689Z,91
2019-03-15T02:27:03.316Z,90.3
2019-03-15T02:28:03.542Z,91.2
2019-03-15T02:29:03.251Z,92.4
2019-03-15T02:30:03.450Z,92.6
2019-03-15T02:31:03.219Z,91.4
2019-03-15T02:32:03.258Z,92.1
2019-03-15T02:33:03.181Z,90.5
2019-03-15T02:34:03.153Z,91.4
2019-03-15T02:35:03.438Z,91.2
2019-03-15T02:36:02.992Z,91.4
2019-03-15T02:37:03.180Z,91.2
2019-03-15T02:38:03.101Z,90.7
2019-03-15T02:39:03.373Z,90.7
2019-03-15T02:40:02.753Z,91
2019-03-15T02:41:03.181Z,90.3
2019-03-15T02:42:03.083Z,90
2019-03-15T02:43:02.805Z,90
2019-03-15T02:44:02.910Z,90
2019-03-15T02:45:03.225Z,89.6
2019-03-15T02:46:03.071Z,88.9
2019-03-15T02:47:03.818Z,89.1
2019-03-15T02:48:03.075Z,89.6
2019-03-15T02:49:03.747Z,89.8
2019-03-15T02:50:02.984Z,89.8
2019-03-15T02:51:02.991Z,90
2019-03-15T02:52:03.829Z,90.7
2019-03-15T02:53:03.733Z,91
2019-03-15T02:54:03.663Z,91
2019-03-15T02:55:03.848Z,88.6
2019-03-15T02:56:04.014Z,89.6
2019-03-15T02:57:03.725Z,89.3
2019-03-15T02:58:03.227Z,88.6
2019-03-15T02:59:03.773Z,87.9
2019-03-15T03:00:03.671Z,87
2019-03-15T03:01:03.824Z,88.4
2019-03-15T03:02:03.866Z,88.4
2019-03-15T03:03:03.663Z,87.7
2019-03-15T03:04:03.681Z,88.2
2019-03-15T03:05:03.506Z,89.3
2019-03-15T03:06:03.772Z,90
2019-03-15T03:07:03.757Z,89.6
2019-03-15T03:08:03.673Z,89.3
2019-03-15T03:09:03.675Z,90.7
2019-03-15T03:10:03.533Z,91
2019-03-15T03:11:03.154Z,90
2019-03-15T03:12:03.409Z,88.9
2019-03-15T03:13:03.188Z,89.8
2019-03-15T03:14:04.764Z,91
2019-03-15T03:15:03.270Z,92.1
2019-03-15T03:16:02.933Z,92.6
2019-03-15T03:17:03.347Z,93.1
2019-03-15T03:18:02.961Z,92.8
2019-03-15T03:19:03.150Z,93.5
2019-03-15T03:20:03.392Z,94.7
2019-03-15T03:21:03.026Z,94.7
2019-03-15T03:22:03.267Z,94.5
2019-03-15T03:23:04.408Z,94
2019-03-15T03:24:03.736Z,94.9
2019-03-15T03:25:03.212Z,94.5
2019-03-15T03:26:03.848Z,94.5
2019-03-15T03:27:02.814Z,95.9
2019-03-15T03:28:02.677Z,94.5
2019-03-15T03:29:03.835Z,92.6
2019-03-15T03:30:03.109Z,93.1
2019-03-15T03:31:03.760Z,94.7
2019-03-15T03:32:03.174Z,94.5
2019-03-15T03:33:03.397Z,95.6
2019-03-15T03:34:03.129Z,95.6
2019-03-15T03:35:03.259Z,95.6
2019-03-15T03:36:03.720Z,95.6
2019-03-15T03:37:03.684Z,96.1
2019-03-15T03:38:03.772Z,97.3
2019-03-15T03:39:03.600Z,97.5
2019-03-15T03:40:03.615Z,97
2019-03-15T03:41:03.396Z,97.3
2019-03-15T03:42:03.627Z,98.9
2019-03-15T03:43:03.683Z,99.1
2019-03-15T03:44:03.591Z,98.7
2019-03-15T03:45:03.657Z,99.4
2019-03-15T03:46:03.516Z,99.6
2019-03-15T03:47:03.618Z,98.2
2019-03-15T03:48:03.763Z,98.7
2019-03-15T03:49:03.552Z,98.2
2019-03-15T03:50:03.458Z,99.4
2019-03-15T03:51:03.454Z,98.9
2019-03-15T03:52:03.349Z,99.4
2019-03-15T03:53:03.120Z,98.2
2019-03-15T03:54:04.614Z,97.3
2019-03-15T03:55:03.548Z,98.7
2019-03-15T03:56:03.234Z,98
2019-03-15T03:57:03.456Z,98
2019-03-15T03:58:03.223Z,98.4
2019-03-15T03:59:03.460Z,98.2
2019-03-15T04:00:03.236Z,98.2
2019-03-15T04:01:03.534Z,98.4
2019-03-15T04:02:02.987Z,97.7
2019-03-15T04:03:02.800Z,97.5
2019-03-15T04:04:03.046Z,98.2
2019-03-15T04:05:02.902Z,97.5
2019-03-15T04:06:03.095Z,97.5
2019-03-15T04:07:03.058Z,98.2
2019-03-15T04:08:02.808Z,98
2019-03-15T04:09:03.801Z,97.7
2019-03-15T04:10:06.442Z,98.4
2019-03-15T04:11:03.952Z,98.2
2019-03-15T04:12:03.773Z,98.2
2019-03-15T04:13:03.495Z,98.2
2019-03-15T04:14:03.902Z,98.2
2019-03-15T04:15:03.871Z,97.5
2019-03-15T04:16:03.660Z,98.4
2019-03-15T04:17:03.554Z,99.1
2019-03-15T04:18:06.983Z,98.9
2019-03-15T04:19:03.531Z,98.7
2019-03-15T04:20:03.553Z,97.7
2019-03-15T04:21:03.840Z,98
2019-03-15T04:22:03.345Z,97.5
2019-03-15T04:23:03.812Z,97.5
2019-03-15T04:24:03.347Z,98.2
2019-03-15T04:25:07.538Z,98.4
2019-03-15T04:26:03.347Z,99.6
2019-03-15T04:27:03.659Z,99.1
2019-03-15T04:28:03.550Z,100.3
2019-03-15T04:29:03.439Z,101.7
2019-03-15T04:30:03.430Z,100.3
2019-03-15T04:31:03.074Z,101.2
2019-03-15T04:32:03.404Z,102.2
2019-03-15T04:33:03.153Z,101
2019-03-15T04:34:03.346Z,100.3
2019-03-15T04:35:03.280Z,100.1
2019-03-15T04:36:03.317Z,101.5
2019-03-15T04:37:03.084Z,101.9
2019-03-15T04:38:03.228Z,102.4
2019-03-15T04:39:03.029Z,101.2
2019-03-15T04:40:03.140Z,101.2
2019-03-15T04:41:02.885Z,101.5
2019-03-15T04:42:03.819Z,99.1
2019-03-15T04:43:02.925Z,99.4
2019-03-15T04:44:03.723Z,99.8
2019-03-15T04:45:03.227Z,99.6
2019-03-15T04:46:03.789Z,99.8
2019-03-15T04:47:03.091Z,102.6
2019-03-15T04:48:02.993Z,102.4
2019-03-15T04:49:02.897Z,102.6
2019-03-15T04:50:03.762Z,100.5
2019-03-15T04:51:02.851Z,101
2019-03-15T04:52:03.815Z,101.2
2019-03-15T04:53:03.868Z,101.2
2019-03-15T04:54:06.140Z,100.8
2019-03-15T04:55:03.734Z,101.2
2019-03-15T04:56:03.794Z,100.3
2019-03-15T04:57:03.615Z,99.6
2019-03-15T04:58:03.685Z,100.1
2019-03-15T04:59:03.604Z,99.8
2019-03-15T05:00:03.782Z,100.5
2019-03-15T05:01:03.545Z,99.6
2019-03-15T05:02:04.304Z,99.4
2019-03-15T05:03:03.385Z,99.1
2019-03-15T05:04:03.300Z,98
2019-03-15T05:05:03.518Z,98.9
2019-03-15T05:06:04.379Z,98.9
2019-03-15T05:07:03.775Z,98.9
2019-03-15T05:08:03.444Z,99.8
2019-03-15T05:09:03.641Z,100.3
2019-03-15T05:10:03.361Z,101.2
2019-03-15T05:11:03.421Z,101.7
2019-03-15T05:12:03.282Z,101.7
2019-03-15T05:13:03.705Z,99.8
2019-03-15T05:14:03.767Z,99.6
2019-03-15T05:15:03.715Z,99.1
2019-03-15T05:16:03.434Z,97.3
2019-03-15T05:17:03.475Z,97
2019-03-15T05:18:03.570Z,97.7
2019-03-15T05:19:03.169Z,96.8
2019-03-15T05:20:03.679Z,97.3
2019-03-15T05:21:03.096Z,96.6
2019-03-15T05:22:03.036Z,97.3
2019-03-15T05:23:03.068Z,96.3
2019-03-15T05:24:03.552Z,94.9
2019-03-15T05:25:03.333Z,96.6
2019-03-15T05:26:03.186Z,94.9
2019-03-15T05:27:03.258Z,94.7
2019-03-15T05:28:03.101Z,94.5
2019-03-15T05:29:02.777Z,94
2019-03-15T05:30:03.085Z,94.9
2019-03-15T05:31:02.940Z,93.1
2019-03-15T05:32:03.198Z,92.4
2019-03-15T05:33:03.910Z,93.3
2019-03-15T05:34:02.953Z,94
2019-03-15T05:35:02.978Z,94.5
2019-03-15T05:36:03.827Z,93.3
2019-03-15T05:37:02.846Z,94.2
2019-03-15T05:38:03.667Z,94.5
2019-03-15T05:39:03.756Z,96.6
2019-03-15T05:40:03.444Z,96.3
2019-03-15T05:41:03.619Z,96.6
2019-03-15T05:42:03.513Z,97.5
2019-03-15T05:43:03.471Z,96.6
2019-03-15T05:44:03.710Z,96.3
2019-03-15T05:45:03.809Z,96.3
2019-03-15T05:46:03.433Z,96.3
2019-03-15T05:47:03.521Z,93.3
2019-03-15T05:48:03.310Z,93.1
2019-03-15T05:49:03.433Z,92.8
2019-03-15T05:50:03.445Z,93.5
2019-03-15T05:51:03.492Z,93.1
2019-03-15T05:52:03.645Z,93.1
2019-03-15T05:53:03.385Z,94
2019-03-15T05:54:03.037Z,95.4
2019-03-15T05:55:03.767Z,94.9
2019-03-15T05:56:03.440Z,96.3
2019-03-15T05:57:03.335Z,98.4
2019-03-15T05:58:03.180Z,98.7
2019-03-15T05:59:03.195Z,98.4
2019-03-15T06:00:03.462Z,98.4
2019-03-15T06:01:02.831Z,98.9
2019-03-15T06:02:03.483Z,100.1
2019-03-15T06:03:03.212Z,100.3
2019-03-15T06:04:03.168Z,101.2
2019-03-15T06:05:03.620Z,100.8
2019-03-15T06:06:03.149Z,100.3
2019-03-15T06:07:03.155Z,100.3
2019-03-15T06:08:03.243Z,101.2
2019-03-15T06:09:02.852Z,101.2
2019-03-15T06:10:01.992Z,100.5
2019-03-15T06:11:02.742Z,100.5
2019-03-15T06:12:03.073Z,100.5
2019-03-15T06:13:02.909Z,102.2
2019-03-15T06:14:03.880Z,104.5
2019-03-15T06:15:03.088Z,103.8
2019-03-15T06:16:02.921Z,103.8
2019-03-15T06:17:03.086Z,103.1
2019-03-15T06:18:02.869Z,103.1
2019-03-15T06:19:03.834Z,104.5
2019-03-15T06:20:06.779Z,104.5
2019-03-15T06:21:02.379Z,104.5
2019-03-15T06:22:03.594Z,104.5
2019-03-15T06:23:03.354Z,105.2
2019-03-15T06:24:03.608Z,106.4
2019-03-15T06:25:03.647Z,104.7
2019-03-15T06:26:03.414Z,105.7
2019-03-15T06:27:03.559Z,106.1
2019-03-15T06:28:03.602Z,104.3
2019-03-15T06:29:03.360Z,103.6
2019-03-15T06:30:03.857Z,103.6
2019-03-15T06:31:03.297Z,105
2019-03-15T06:32:03.067Z,104.3
2019-03-15T06:33:02.780Z,103.8
2019-03-15T06:34:03.428Z,103.6
2019-03-15T06:35:03.464Z,105.4
2019-03-15T06:36:03.082Z,106.6
2019-03-15T06:37:03.483Z,105.2
2019-03-15T06:38:03.256Z,105.2
2019-03-15T06:39:02.980Z,102.6
2019-03-15T06:40:03.304Z,103.6
2019-03-15T06:41:02.944Z,103.6
2019-03-15T06:42:03.318Z,103.3
2019-03-15T06:43:03.103Z,104
2019-03-15T06:44:02.987Z,103.8
2019-03-15T06:45:03.145Z,103.1
2019-03-15T06:46:03.099Z,102.6
2019-03-15T06:47:03.245Z,104
2019-03-15T06:48:03.171Z,104.3
2019-03-15T06:49:03.110Z,104.5
2019-03-15T06:50:03.304Z,104.7
2019-03-15T06:51:03.052Z,105.2
2019-03-15T06:52:03.414Z,103.1
2019-03-15T06:53:03.294Z,102.9
2019-03-15T06:54:12.272Z,102.2
2019-03-15T06:55:05.798Z,101.9
2019-03-15T06:56:03.168Z,101.2
2019-03-15T06:57:02.954Z,99.4
2019-03-15T06:58:03.531Z,100.1
2019-03-15T06:59:03.142Z,99.1
2019-03-15T07:00:04.208Z,98.9
2019-03-15T07:01:03.227Z,99.1
2019-03-15T07:02:02.832Z,99.6
2019-03-15T07:03:02.818Z,99.4
2019-03-15T07:04:03.438Z,99.1
2019-03-15T07:05:03.303Z,100.8
2019-03-15T07:06:03.607Z,101.2
2019-03-15T07:07:03.726Z,102.4
2019-03-15T07:08:03.586Z,103.1
2019-03-15T07:09:03.047Z,103.1
2019-03-15T07:10:03.863Z,101.5
2019-03-15T07:11:02.840Z,103.1
2019-03-15T07:12:11.772Z,103.1
2019-03-15T07:13:03.693Z,105.2
2019-03-15T07:14:03.647Z,103.1
2019-03-15T07:15:03.660Z,104.7
2019-03-15T07:16:03.426Z,105.7
2019-03-15T07:17:03.592Z,105.2
2019-03-15T07:18:03.349Z,104
2019-03-15T07:19:03.547Z,103.8
2019-03-15T07:20:03.624Z,102.4
2019-03-15T07:21:03.416Z,102.6
2019-03-15T07:22:03.246Z,103.1
2019-03-15T07:23:03.317Z,103.6
2019-03-15T07:24:02.790Z,103.3
2019-03-15T07:25:02.901Z,102.4
2019-03-15T07:26:02.948Z,101.5
2019-03-15T07:27:13.968Z,101.5
2019-03-15T07:28:02.878Z,102.6
2019-03-15T07:29:03.099Z,103.6
2019-03-15T07:30:03.102Z,104
2019-03-15T07:31:02.941Z,104.3
2019-03-15T07:32:03.026Z,106.6
2019-03-15T07:33:02.768Z,107.3
2019-03-15T07:34:03.002Z,106.8
2019-03-15T07:35:03.831Z,106.1
2019-03-15T07:36:03.506Z,106.1
2019-03-15T07:37:03.396Z,106.1
2019-03-15T07:38:02.903Z,106.6
2019-03-15T07:39:03.790Z,107.1
2019-03-15T07:40:03.666Z,107.1
2019-03-15T07:41:03.531Z,106.8
2019-03-15T07:42:03.097Z,106.4
2019-03-15T07:43:05.702Z,105.7
2019-03-15T07:44:03.937Z,105.7
2019-03-15T07:45:03.594Z,106.1
2019-03-15T07:46:03.883Z,106.4
2019-03-15T07:47:03.522Z,105.4
2019-03-15T07:48:03.335Z,105
2019-03-15T07:49:03.711Z,105.9
2019-03-15T07:50:03.374Z,105
2019-03-15T07:51:03.017Z,105
2019-03-15T07:52:04.370Z,106.1
2019-03-15T07:53:03.376Z,107.5
2019-03-15T07:54:03.230Z,107.8
2019-03-15T07:55:03.148Z,107.8
2019-03-15T07:56:03.116Z,107.1
2019-03-15T07:57:03.764Z,107.1
2019-03-15T07:58:02.950Z,105
2019-03-15T07:59:02.931Z,106.1
2019-03-15T08:00:03.292Z,105
2019-03-15T08:01:03.066Z,104
2019-03-15T08:02:02.984Z,103.3
2019-03-15T08:03:03.068Z,103.6
2019-03-15T08:04:17.958Z,104
2019-03-15T08:05:03.115Z,103.3
2019-03-15T08:06:03.092Z,102.9
2019-03-15T08:07:02.963Z,101
2019-03-15T08:08:03.328Z,100.1
2019-03-15T08:09:02.784Z,99.1
2019-03-15T08:10:02.952Z,99.1
2019-03-15T08:11:03.745Z,98.4
2019-03-15T08:12:02.987Z,97.3
2019-03-15T08:13:03.647Z,97
2019-03-15T08:14:03.627Z,97
2019-03-15T08:15:02.967Z,98.4
2019-03-15T08:16:03.555Z,97
2019-03-15T08:17:03.677Z,98.7
2019-03-15T08:18:03.342Z,99.4
2019-03-15T08:19:05.620Z,99.6
2019-03-15T08:20:03.822Z,100.1
2019-03-15T08:21:02.531Z,100.5
2019-03-15T08:22:03.640Z,98.7
2019-03-15T08:23:03.588Z,98.2
2019-03-15T08:24:03.764Z,98.7
2019-03-15T08:25:03.727Z,100.3
2019-03-15T08:26:03.320Z,99.8
2019-03-15T08:27:03.755Z,98.7
2019-03-15T08:28:03.756Z,99.4
2019-03-15T08:29:03.795Z,99.1
2019-03-15T08:30:03.133Z,98.7
2019-03-15T08:31:02.998Z,96.1
2019-03-15T08:32:03.629Z,95.6
2019-03-15T08:33:11.575Z,95.2
2019-03-15T08:34:03.415Z,95.4
2019-03-15T08:35:04.579Z,94.9
2019-03-15T08:36:03.418Z,93.3
2019-03-15T08:37:03.175Z,93.3
2019-03-15T08:38:05.709Z,93.8
2019-03-15T08:39:03.647Z,93.3
2019-03-15T08:40:03.849Z,92.6
2019-03-15T08:41:03.710Z,93.3
2019-03-15T08:42:03.473Z,93.8
2019-03-15T08:43:03.308Z,94.5
2019-03-15T08:44:03.164Z,96.3
2019-03-15T08:45:02.316Z,97.5
2019-03-15T08:46:03.588Z,98.2
2019-03-15T08:47:03.029Z,98.2
2019-03-15T08:48:03.428Z,98.4
2019-03-15T08:49:03.021Z,97.7
2019-03-15T08:50:03.193Z,98.7
2019-03-15T08:51:03.278Z,99.8
2019-03-15T08:52:04.514Z,99.4
2019-03-15T08:53:03.150Z,98.7
2019-03-15T08:54:03.057Z,99.6
2019-03-15T08:55:06.243Z,99.1
2019-03-15T08:56:03.042Z,101
2019-03-15T08:57:03.027Z,101
2019-03-15T08:58:22.802Z,102.9
2019-03-15T08:59:03.807Z,102.6
2019-03-15T09:00:03.791Z,102.6
2019-03-15T09:01:03.567Z,103.1
2019-03-15T09:02:03.731Z,102.6
2019-03-15T09:03:02.597Z,102.9
2019-03-15T09:04:02.948Z,103.6
2019-03-15T09:05:03.078Z,103.3
2019-03-15T09:06:03.820Z,103.6
2019-03-15T09:07:03.598Z,104.3
2019-03-15T09:08:03.815Z,105
2019-03-15T09:09:03.549Z,106.1
2019-03-15T09:10:04.076Z,106.1
2019-03-15T09:11:03.594Z,104.7
2019-03-15T09:12:03.444Z,104.3
2019-03-15T09:13:03.358Z,104.3
2019-03-15T09:14:03.856Z,104
2019-03-15T09:15:03.696Z,102.9
2019-03-15T09:16:03.479Z,101.2
2019-03-15T09:17:03.359Z,99.4
2019-03-15T09:18:03.506Z,100.5
2019-03-15T09:19:03.496Z,99.6
2019-03-15T09:20:03.589Z,100.5
2019-03-15T09:21:01.703Z,101
2019-03-15T09:22:03.398Z,101.5
2019-03-15T09:23:03.584Z,101.2
2019-03-15T09:24:03.353Z,100.3
2019-03-15T09:25:03.086Z,99.6
2019-03-15T09:26:03.649Z,100.8
2019-03-15T09:27:03.334Z,100.5
2019-03-15T09:28:03.298Z,99.1
2019-03-15T09:29:03.573Z,98.2
2019-03-15T09:30:03.182Z,97
2019-03-15T09:31:03.046Z,98.4
2019-03-15T09:32:09.755Z,98.4
2019-03-15T09:33:03.723Z,99.4
2019-03-15T09:34:03.355Z,98.9
2019-03-15T09:35:03.208Z,99.1
2019-03-15T09:36:03.465Z,100.8
2019-03-15T09:37:03.136Z,99.4
2019-03-15T09:38:03.076Z,100.1
2019-03-15T09:39:03.307Z,99.8
2019-03-15T09:40:03.129Z,100.8
2019-03-15T09:41:03.103Z,100.5
2019-03-15T09:42:03.678Z,99.8
2019-03-15T09:43:02.865Z,99.4
2019-03-15T09:44:03.095Z,98.2
2019-03-15T09:45:02.855Z,96.8
2019-03-15T09:46:02.798Z,96.3
2019-03-15T09:47:04.024Z,97
2019-03-15T09:48:03.664Z,97.3
2019-03-15T09:49:03.965Z,96.3
2019-03-15T09:50:03.474Z,94.7
2019-03-15T09:51:03.554Z,94.5
2019-03-15T09:52:03.565Z,94.5
2019-03-15T09:53:06.624Z,93.1
2019-03-15T09:54:03.412Z,93.1
2019-03-15T09:55:03.501Z,93.3
2019-03-15T09:56:03.382Z,93.3
2019-03-15T09:57:03.399Z,94
2019-03-15T09:58:03.457Z,93.3
2019-03-15T09:59:03.213Z,93.5
2019-03-15T10:00:03.474Z,93.1
2019-03-15T10:01:05.791Z,93.1
2019-03-15T10:02:03.262Z,93.8
2019-03-15T10:03:03.084Z,93.8
2019-03-15T10:04:03.299Z,91
2019-03-15T10:05:11.986Z,90
2019-03-15T10:06:19.940Z,90.3
2019-03-15T10:07:03.054Z,90.7
2019-03-15T10:08:02.934Z,89.3
2019-03-15T10:09:03.885Z,87.9
2019-03-15T10:10:19.425Z,87.5
2019-03-15T10:11:03.645Z,90
2019-03-15T10:12:03.946Z,91.4
2019-03-15T10:13:06.759Z,91.7
2019-03-15T10:14:03.746Z,91.7
2019-03-15T10:15:03.717Z,91.2
2019-03-15T10:16:03.618Z,92.4
2019-03-15T10:17:03.832Z,93.1
2019-03-15T10:18:03.701Z,93.3
2019-03-15T10:19:03.779Z,94.5
2019-03-15T10:20:03.568Z,94.7
2019-03-15T10:21:03.746Z,93.1
2019-03-15T10:22:03.587Z,93.1
2019-03-15T10:23:06.861Z,93.5
2019-03-15T10:24:02.935Z,93.1
2019-03-15T10:25:03.604Z,93.1
2019-03-15T10:26:03.095Z,93.5
2019-03-15T10:27:03.774Z,94.9
2019-03-15T10:28:02.626Z,95.2
2019-03-15T10:29:19.922Z,95.2
2019-03-15T10:30:03.585Z,96.3
2019-03-15T10:31:03.578Z,95.6
2019-03-15T10:32:03.690Z,94.2
2019-03-15T10:33:03.281Z,92.6
2019-03-15T10:34:06.193Z,93.1
2019-03-15T10:35:03.577Z,91.4
2019-03-15T10:36:03.424Z,90
2019-03-15T10:37:06.647Z,90.5
2019-03-15T10:38:03.365Z,91
2019-03-15T10:39:03.241Z,91.9
2019-03-15T10:40:02.845Z,91.7
2019-03-15T10:41:03.225Z,91.7
2019-03-15T10:42:03.043Z,93.8
2019-03-15T10:43:03.113Z,94.7
2019-03-15T10:44:04.598Z,94.7
2019-03-15T10:45:03.108Z,94.5
2019-03-15T10:46:06.636Z,94.7
2019-03-15T10:47:03.642Z,94.7
2019-03-15T10:48:02.936Z,94.7
2019-03-15T10:49:03.704Z,95.2
2019-03-15T10:50:03.783Z,95.9
2019-03-15T10:51:03.540Z,94.7
2019-03-15T10:52:03.820Z,95.4
2019-03-15T10:53:03.755Z,96.8
2019-03-15T10:54:03.579Z,96.6
2019-03-15T10:55:03.574Z,97.5
2019-03-15T10:56:03.417Z,96.3
2019-03-15T10:57:03.330Z,96.6
2019-03-15T10:58:03.740Z,98.9
2019-03-15T10:59:03.572Z,97.7
2019-03-15T11:00:03.544Z,98
2019-03-15T11:01:03.476Z,98.9
2019-03-15T11:02:03.194Z,98.4
2019-03-15T11:03:03.352Z,97.7
2019-03-15T11:04:03.554Z,98
2019-03-15T11:05:03.474Z,98.9
2019-03-15T11:06:03.195Z,97.7
2019-03-15T11:07:02.859Z,97.5
2019-03-15T11:08:03.006Z,97.7
2019-03-15T11:09:03.088Z,96.8
2019-03-15T11:10:02.970Z,98.4
2019-03-15T11:11:03.058Z,95.6
2019-03-15T11:12:03.227Z,95.6
2019-03-15T11:13:02.849Z,92.8
2019-03-15T11:14:03.159Z,94
2019-03-15T11:15:02.812Z,94
2019-03-15T11:16:03.099Z,93.5
2019-03-15T11:17:03.039Z,92.6
2019-03-15T11:18:03.660Z,91.9
2019-03-15T11:19:03.872Z,91.7
2019-03-15T11:20:03.556Z,90.7
2019-03-15T11:21:03.189Z,90.7
2019-03-15T11:22:03.495Z,91.9
2019-03-15T11:23:03.834Z,92.4
2019-03-15T11:24:03.784Z,93.8
2019-03-15T11:25:03.942Z,93.8
2019-03-15T11:26:14.408Z,93.5
2019-03-15T11:27:02.869Z,93.1
2019-03-15T11:28:04.006Z,93.1
2019-03-15T11:29:03.690Z,93.1
2019-03-15T11:30:03.739Z,92.1
2019-03-15T11:31:03.694Z,93.3
2019-03-15T11:32:03.494Z,94
2019-03-15T11:33:03.624Z,95.4
2019-03-15T11:34:03.505Z,96.3
2019-03-15T11:35:03.455Z,98
2019-03-15T11:36:03.423Z,98.7
2019-03-15T11:37:03.976Z,98.9
2019-03-15T11:38:03.607Z,97.3
2019-03-15T11:39:03.091Z,97.7
2019-03-15T11:40:03.969Z,97.5
2019-03-15T11:41:03.334Z,97.5
2019-03-15T11:42:03.300Z,96.3
2019-03-15T11:43:03.222Z,95.4
2019-03-15T11:44:03.150Z,95.4
2019-03-15T11:45:03.316Z,95.2
2019-03-15T11:46:03.241Z,96.1
2019-03-15T11:47:03.832Z,96.8
2019-03-15T11:48:04.915Z,96.6
2019-03-15T11:49:03.643Z,96.6
2019-03-15T11:50:03.614Z,97.5
2019-03-15T11:51:03.260Z,97.7
2019-03-15T11:52:02.990Z,97.5
2019-03-15T11:53:02.838Z,97.5
2019-03-15T11:54:03.068Z,96.6
2019-03-15T11:55:03.350Z,95.2
2019-03-15T11:56:03.272Z,95.2
2019-03-15T11:57:03.462Z,94.9
2019-03-15T11:58:03.425Z,92.1
2019-03-15T11:59:03.269Z,92.8
2019-03-15T12:00:03.515Z,93.5
2019-03-15T12:01:03.400Z,93.3
2019-03-15T12:02:04.807Z,94.2
2019-03-15T12:03:03.112Z,95.2
2019-03-15T12:04:03.336Z,95.6
2019-03-15T12:05:03.150Z,95.9
2019-03-15T12:06:03.080Z,96.3
2019-03-15T12:07:02.952Z,96.1
2019-03-15T12:08:02.899Z,96.6
2019-03-15T12:09:02.960Z,98.4
2019-03-15T12:10:02.971Z,98.9
2019-03-15T12:11:02.948Z,98.7
2019-03-15T12:12:04.055Z,99.4
2019-03-15T12:13:03.044Z,99.1
2019-03-15T12:14:03.496Z,98.2
2019-03-15T12:15:03.210Z,98.9
2019-03-15T12:16:02.988Z,99.8
2019-03-15T12:17:03.645Z,100.1
2019-03-15T12:18:03.423Z,99.1
2019-03-15T12:19:03.474Z,97.3
2019-03-15T12:20:03.826Z,97
2019-03-15T12:21:03.536Z,98
2019-03-15T12:22:07.070Z,98.4
2019-03-15T12:23:03.762Z,97.7
2019-03-15T12:24:03.048Z,97
2019-03-15T12:25:03.884Z,97.3
2019-03-15T12:26:02.757Z,96.3
2019-03-15T12:27:03.712Z,95.9
2019-03-15T12:28:03.810Z,95.4
2019-03-15T12:29:03.529Z,95.4
2019-03-15T12:30:03.618Z,96.8
2019-03-15T12:31:03.488Z,96.3
2019-03-15T12:32:03.538Z,95.4
2019-03-15T12:33:03.508Z,95.4
2019-03-15T12:34:03.483Z,94.2
2019-03-15T12:35:03.552Z,94.2
2019-03-15T12:36:03.838Z,94
2019-03-15T12:37:03.516Z,94.2
2019-03-15T12:38:03.616Z,94.7
2019-03-15T12:39:03.251Z,93.3
2019-03-15T12:40:03.122Z,93.1
2019-03-15T12:41:03.232Z,93.3
2019-03-15T12:42:03.414Z,93.3
2019-03-15T12:43:02.986Z,93.3
2019-03-15T12:44:03.263Z,93.1
2019-03-15T12:45:03.288Z,94.9
2019-03-15T12:46:02.878Z,94.2
2019-03-15T12:47:06.774Z,94.5
2019-03-15T12:48:03.104Z,94.9
2019-03-15T12:49:02.879Z,95.4
2019-03-15T12:50:03.732Z,95.2
2019-03-15T12:51:02.976Z,96.6
2019-03-15T12:52:03.871Z,96.3
2019-03-15T12:53:03.856Z,95.6
2019-03-15T12:54:04.704Z,95.6
2019-03-15T12:55:03.866Z,95.9
2019-03-15T12:56:03.811Z,95.2
2019-03-15T12:57:03.580Z,94.5
2019-03-15T12:58:03.790Z,94.2
2019-03-15T12:59:03.592Z,94.7
2019-03-15T13:00:03.569Z,93.8
2019-03-15T13:01:03.409Z,93.3
2019-03-15T13:02:03.576Z,92.8
2019-03-15T13:03:03.458Z,94
2019-03-15T13:04:03.503Z,94.9
2019-03-15T13:05:03.412Z,94.5
2019-03-15T13:06:03.610Z,94.5
2019-03-15T13:07:03.349Z,94.7
2019-03-15T13:08:03.329Z,93.3
2019-03-15T13:09:03.400Z,93.3
2019-03-15T13:10:02.990Z,93.5
2019-03-15T13:11:03.268Z,94.5
2019-03-15T13:12:03.502Z,94.5
2019-03-15T13:13:03.400Z,96.8
2019-03-15T13:14:03.407Z,96.1
2019-03-15T13:15:03.303Z,96.1
2019-03-15T13:16:03.350Z,96.3
2019-03-15T13:17:03.179Z,97.3